sensor_id;sensor_type;location;lat;lon;timestamp;P1;durP1;ratioP1;P2;durP2;ratioP2
63943;SDS011;50121;51.218;7.664;2023-02-10T00:03:37;62.22;;;26.75;;
63943;SDS011;50121;51.218;7.664;2023-02-10T00:06:06;62.63;;;27.15;;
63943;SDS011;50121;51.218;7.664;2023-02-10T00:08:34;59.70;;;25.73;;
63943;SDS011;50121;51.218;7.664;2023-02-10T00:11:06;60.05;;;25.88;;
63943;SDS011;50121;51.218;7.664;2023-02-10T00:13:35;58.17;;;26.40;;
63943;SDS011;50121;51.218;7.664;2023-02-10T00:16:04;60.97;;;25.40;;
63943;SDS011;50121;51.218;7.664;2023-02-10T00:18:32;55.97;;;26.25;;
63943;SDS011;50121;51.218;7.664;2023-02-10T00:21:07;65.47;;;26.75;;
63943;SDS011;50121;51.218;7.664;2023-02-10T00:23:35;48.55;;;22.60;;
63943;SDS011;50121;51.218;7.664;2023-02-10T00:26:03;67.03;;;27.70;;
63943;SDS011;50121;51.218;7.664;2023-02-10T00:28:32;58.60;;;26.38;;
63943;SDS011;50121;51.218;7.664;2023-02-10T00:31:04;56.22;;;27.05;;
63943;SDS011;50121;51.218;7.664;2023-02-10T00:33:32;56.00;;;26.27;;
63943;SDS011;50121;51.218;7.664;2023-02-10T00:36:06;59.53;;;26.45;;
63943;SDS011;50121;51.218;7.664;2023-02-10T00:38:34;56.65;;;26.23;;
63943;SDS011;50121;51.218;7.664;2023-02-10T00:41:10;59.10;;;27.73;;
63943;SDS011;50121;51.218;7.664;2023-02-10T00:43:38;56.80;;;26.30;;
63943;SDS011;50121;51.218;7.664;2023-02-10T00:46:10;56.35;;;25.00;;
63943;SDS011;50121;51.218;7.664;2023-02-10T00:48:39;63.28;;;25.85;;
63943;SDS011;50121;51.218;7.664;2023-02-10T00:51:09;67.60;;;29.25;;
63943;SDS011;50121;51.218;7.664;2023-02-10T00:53:36;61.00;;;27.10;;
63943;SDS011;50121;51.218;7.664;2023-02-10T00:56:04;57.05;;;24.15;;
63943;SDS011;50121;51.218;7.664;2023-02-10T00:58:33;60.97;;;27.65;;
63943;SDS011;50121;51.218;7.664;2023-02-10T01:01:01;66.45;;;26.55;;
63943;SDS011;50121;51.218;7.664;2023-02-10T01:03:30;63.55;;;27.70;;
63943;SDS011;50121;51.218;7.664;2023-02-10T01:05:58;57.53;;;26.48;;
63943;SDS011;50121;51.218;7.664;2023-02-10T01:08:25;59.53;;;26.70;;
63943;SDS011;50121;51.218;7.664;2023-02-10T01:11:01;64.30;;;26.60;;
63943;SDS011;50121;51.218;7.664;2023-02-10T01:13:29;57.35;;;27.33;;
63943;SDS011;50121;51.218;7.664;2023-02-10T01:15:57;63.80;;;28.33;;
63943;SDS011;50121;51.218;7.664;2023-02-10T01:18:24;60.67;;;26.85;;
63943;SDS011;50121;51.218;7.664;2023-02-10T01:20:52;61.63;;;27.88;;
63943;SDS011;50121;51.218;7.664;2023-02-10T01:23:20;60.72;;;27.23;;
63943;SDS011;50121;51.218;7.664;2023-02-10T01:25:47;55.72;;;26.48;;
63943;SDS011;50121;51.218;7.664;2023-02-10T01:28:15;59.25;;;27.42;;
63943;SDS011;50121;51.218;7.664;2023-02-10T01:30:44;59.78;;;26.70;;
63943;SDS011;50121;51.218;7.664;2023-02-10T01:33:13;60.40;;;26.55;;
63943;SDS011;50121;51.218;7.664;2023-02-10T01:35:40;62.60;;;27.35;;
63943;SDS011;50121;51.218;7.664;2023-02-10T01:38:08;58.30;;;26.60;;
63943;SDS011;50121;51.218;7.664;2023-02-10T01:40:35;60.03;;;26.63;;
63943;SDS011;50121;51.218;7.664;2023-02-10T01:43:07;56.15;;;26.98;;
63943;SDS011;50121;51.218;7.664;2023-02-10T01:45:38;63.72;;;27.67;;
63943;SDS011;50121;51.218;7.664;2023-02-10T01:48:06;56.53;;;25.92;;
63943;SDS011;50121;51.218;7.664;2023-02-10T01:50:43;61.00;;;25.60;;
63943;SDS011;50121;51.218;7.664;2023-02-10T01:53:12;58.92;;;25.90;;
63943;SDS011;50121;51.218;7.664;2023-02-10T01:55:41;59.20;;;26.55;;
63943;SDS011;50121;51.218;7.664;2023-02-10T01:58:11;59.22;;;27.05;;
63943;SDS011;50121;51.218;7.664;2023-02-10T02:00:41;64.10;;;26.48;;
63943;SDS011;50121;51.218;7.664;2023-02-10T02:03:08;59.63;;;26.23;;
63943;SDS011;50121;51.218;7.664;2023-02-10T02:05:37;56.80;;;25.67;;
63943;SDS011;50121;51.218;7.664;2023-02-10T02:08:13;54.42;;;25.40;;
63943;SDS011;50121;51.218;7.664;2023-02-10T02:18:47;61.78;;;26.85;;
63943;SDS011;50121;51.218;7.664;2023-02-10T02:38:30;59.67;;;27.83;;
63943;SDS011;50121;51.218;7.664;2023-02-10T02:41:04;54.88;;;25.67;;
63943;SDS011;50121;51.218;7.664;2023-02-10T02:43:32;60.67;;;27.83;;
63943;SDS011;50121;51.218;7.664;2023-02-10T02:46:16;62.97;;;25.95;;
63943;SDS011;50121;51.218;7.664;2023-02-10T02:51:22;61.30;;;26.92;;
63943;SDS011;50121;51.218;7.664;2023-02-10T02:54:00;62.13;;;25.67;;
63943;SDS011;50121;51.218;7.664;2023-02-10T02:56:34;60.65;;;27.77;;
63943;SDS011;50121;51.218;7.664;2023-02-10T03:01:56;59.60;;;26.42;;
63943;SDS011;50121;51.218;7.664;2023-02-10T03:04:26;66.80;;;29.15;;
63943;SDS011;50121;51.218;7.664;2023-02-10T03:06:54;65.85;;;28.52;;
63943;SDS011;50121;51.218;7.664;2023-02-10T03:09:22;66.85;;;28.60;;
63943;SDS011;50121;51.218;7.664;2023-02-10T03:11:50;58.00;;;26.90;;
63943;SDS011;50121;51.218;7.664;2023-02-10T03:14:17;59.83;;;28.10;;
63943;SDS011;50121;51.218;7.664;2023-02-10T03:16:45;65.07;;;29.73;;
63943;SDS011;50121;51.218;7.664;2023-02-10T03:19:13;65.97;;;27.95;;
63943;SDS011;50121;51.218;7.664;2023-02-10T03:21:40;67.20;;;28.70;;
63943;SDS011;50121;51.218;7.664;2023-02-10T03:24:08;64.63;;;29.27;;
63943;SDS011;50121;51.218;7.664;2023-02-10T03:26:36;69.45;;;29.45;;
63943;SDS011;50121;51.218;7.664;2023-02-10T03:29:04;64.45;;;27.35;;
63943;SDS011;50121;51.218;7.664;2023-02-10T03:31:32;64.68;;;28.98;;
63943;SDS011;50121;51.218;7.664;2023-02-10T03:34:00;62.55;;;27.42;;
63943;SDS011;50121;51.218;7.664;2023-02-10T03:36:27;67.95;;;28.60;;
63943;SDS011;50121;51.218;7.664;2023-02-10T03:38:55;64.13;;;28.27;;
63943;SDS011;50121;51.218;7.664;2023-02-10T03:41:23;64.15;;;27.45;;
63943;SDS011;50121;51.218;7.664;2023-02-10T03:43:51;61.25;;;28.98;;
63943;SDS011;50121;51.218;7.664;2023-02-10T03:46:18;66.47;;;29.08;;
63943;SDS011;50121;51.218;7.664;2023-02-10T03:48:47;64.88;;;28.77;;
63943;SDS011;50121;51.218;7.664;2023-02-10T03:51:15;64.72;;;27.38;;
63943;SDS011;50121;51.218;7.664;2023-02-10T03:53:42;68.07;;;28.75;;
63943;SDS011;50121;51.218;7.664;2023-02-10T03:56:10;67.25;;;28.40;;
63943;SDS011;50121;51.218;7.664;2023-02-10T03:58:37;64.70;;;29.30;;
63943;SDS011;50121;51.218;7.664;2023-02-10T04:01:12;66.70;;;29.25;;
63943;SDS011;50121;51.218;7.664;2023-02-10T04:03:40;65.53;;;28.90;;
63943;SDS011;50121;51.218;7.664;2023-02-10T04:06:08;69.78;;;30.15;;
63943;SDS011;50121;51.218;7.664;2023-02-10T04:08:36;65.55;;;29.15;;
63943;SDS011;50121;51.218;7.664;2023-02-10T04:11:04;67.75;;;29.75;;
63943;SDS011;50121;51.218;7.664;2023-02-10T04:13:34;70.65;;;28.88;;
63943;SDS011;50121;51.218;7.664;2023-02-10T04:16:03;67.15;;;27.80;;
63943;SDS011;50121;51.218;7.664;2023-02-10T04:18:31;63.47;;;27.98;;
63943;SDS011;50121;51.218;7.664;2023-02-10T04:20:59;61.83;;;24.90;;
63943;SDS011;50121;51.218;7.664;2023-02-10T04:23:30;60.08;;;25.77;;
63943;SDS011;50121;51.218;7.664;2023-02-10T04:25:58;60.60;;;26.20;;
63943;SDS011;50121;51.218;7.664;2023-02-10T04:28:26;63.58;;;27.70;;
63943;SDS011;50121;51.218;7.664;2023-02-10T04:30:54;69.25;;;27.90;;
63943;SDS011;50121;51.218;7.664;2023-02-10T04:33:22;60.03;;;27.70;;
63943;SDS011;50121;51.218;7.664;2023-02-10T04:35:53;60.58;;;27.27;;
63943;SDS011;50121;51.218;7.664;2023-02-10T04:38:21;61.28;;;26.23;;
63943;SDS011;50121;51.218;7.664;2023-02-10T04:40:49;57.05;;;26.20;;
63943;SDS011;50121;51.218;7.664;2023-02-10T04:43:17;58.00;;;27.00;;
63943;SDS011;50121;51.218;7.664;2023-02-10T04:45:45;63.78;;;27.42;;
63943;SDS011;50121;51.218;7.664;2023-02-10T04:48:13;58.47;;;26.33;;
63943;SDS011;50121;51.218;7.664;2023-02-10T04:50:41;63.00;;;24.58;;
63943;SDS011;50121;51.218;7.664;2023-02-10T04:53:09;60.28;;;25.20;;
63943;SDS011;50121;51.218;7.664;2023-02-10T04:55:36;61.50;;;24.63;;
63943;SDS011;50121;51.218;7.664;2023-02-10T04:58:04;67.53;;;27.60;;
63943;SDS011;50121;51.218;7.664;2023-02-10T05:00:33;58.95;;;24.38;;
63943;SDS011;50121;51.218;7.664;2023-02-10T05:03:01;63.00;;;23.67;;
63943;SDS011;50121;51.218;7.664;2023-02-10T05:05:28;60.40;;;23.50;;
63943;SDS011;50121;51.218;7.664;2023-02-10T05:07:56;59.50;;;27.00;;
63943;SDS011;50121;51.218;7.664;2023-02-10T05:10:24;68.95;;;26.77;;
63943;SDS011;50121;51.218;7.664;2023-02-10T05:12:52;65.68;;;27.67;;
63943;SDS011;50121;51.218;7.664;2023-02-10T05:15:19;63.42;;;25.88;;
63943;SDS011;50121;51.218;7.664;2023-02-10T05:17:47;66.13;;;23.98;;
63943;SDS011;50121;51.218;7.664;2023-02-10T05:20:15;55.17;;;23.10;;
63943;SDS011;50121;51.218;7.664;2023-02-10T05:22:42;61.33;;;25.80;;
63943;SDS011;50121;51.218;7.664;2023-02-10T05:25:10;56.83;;;22.13;;
63943;SDS011;50121;51.218;7.664;2023-02-10T05:27:41;58.80;;;24.35;;
63943;SDS011;50121;51.218;7.664;2023-02-10T05:30:09;58.67;;;24.80;;
63943;SDS011;50121;51.218;7.664;2023-02-10T05:32:42;62.30;;;26.88;;
63943;SDS011;50121;51.218;7.664;2023-02-10T05:35:10;63.38;;;26.20;;
63943;SDS011;50121;51.218;7.664;2023-02-10T05:37:38;58.90;;;24.33;;
63943;SDS011;50121;51.218;7.664;2023-02-10T05:40:06;66.35;;;25.15;;
63943;SDS011;50121;51.218;7.664;2023-02-10T05:42:33;67.05;;;27.92;;
63943;SDS011;50121;51.218;7.664;2023-02-10T05:45:01;55.20;;;23.15;;
63943;SDS011;50121;51.218;7.664;2023-02-10T05:47:29;58.35;;;24.27;;
63943;SDS011;50121;51.218;7.664;2023-02-10T05:49:56;64.50;;;26.88;;
63943;SDS011;50121;51.218;7.664;2023-02-10T05:52:24;65.05;;;28.05;;
63943;SDS011;50121;51.218;7.664;2023-02-10T05:54:52;59.20;;;26.13;;
63943;SDS011;50121;51.218;7.664;2023-02-10T05:57:19;59.80;;;23.48;;
63943;SDS011;50121;51.218;7.664;2023-02-10T05:59:47;66.00;;;27.65;;
63943;SDS011;50121;51.218;7.664;2023-02-10T06:02:14;58.88;;;23.48;;
63943;SDS011;50121;51.218;7.664;2023-02-10T06:04:42;59.30;;;23.02;;
63943;SDS011;50121;51.218;7.664;2023-02-10T06:07:09;60.92;;;25.38;;
63943;SDS011;50121;51.218;7.664;2023-02-10T06:09:37;60.13;;;24.85;;
63943;SDS011;50121;51.218;7.664;2023-02-10T06:12:08;54.28;;;24.02;;
63943;SDS011;50121;51.218;7.664;2023-02-10T06:14:36;61.03;;;24.55;;
63943;SDS011;50121;51.218;7.664;2023-02-10T06:17:05;60.05;;;25.45;;
63943;SDS011;50121;51.218;7.664;2023-02-10T06:19:36;63.70;;;26.33;;
63943;SDS011;50121;51.218;7.664;2023-02-10T06:22:04;60.15;;;24.38;;
63943;SDS011;50121;51.218;7.664;2023-02-10T06:24:32;57.58;;;23.65;;
63943;SDS011;50121;51.218;7.664;2023-02-10T06:27:00;56.90;;;24.23;;
63943;SDS011;50121;51.218;7.664;2023-02-10T06:29:28;59.90;;;22.75;;
63943;SDS011;50121;51.218;7.664;2023-02-10T06:31:55;64.30;;;26.15;;
63943;SDS011;50121;51.218;7.664;2023-02-10T06:34:23;64.70;;;24.05;;
63943;SDS011;50121;51.218;7.664;2023-02-10T06:36:50;58.88;;;22.23;;
63943;SDS011;50121;51.218;7.664;2023-02-10T06:39:18;62.22;;;24.27;;
63943;SDS011;50121;51.218;7.664;2023-02-10T06:41:45;55.95;;;23.70;;
63943;SDS011;50121;51.218;7.664;2023-02-10T06:44:13;68.65;;;26.10;;
63943;SDS011;50121;51.218;7.664;2023-02-10T06:46:41;60.50;;;25.35;;
63943;SDS011;50121;51.218;7.664;2023-02-10T06:49:08;55.20;;;20.95;;
63943;SDS011;50121;51.218;7.664;2023-02-10T06:51:36;58.65;;;23.60;;
63943;SDS011;50121;51.218;7.664;2023-02-10T06:54:03;68.38;;;23.67;;
63943;SDS011;50121;51.218;7.664;2023-02-10T06:56:31;57.78;;;22.25;;
63943;SDS011;50121;51.218;7.664;2023-02-10T06:58:59;66.97;;;24.83;;
63943;SDS011;50121;51.218;7.664;2023-02-10T07:01:26;65.97;;;26.13;;
63943;SDS011;50121;51.218;7.664;2023-02-10T07:03:54;60.20;;;24.45;;
63943;SDS011;50121;51.218;7.664;2023-02-10T07:06:22;50.95;;;20.42;;
63943;SDS011;50121;51.218;7.664;2023-02-10T07:08:49;65.60;;;23.98;;
63943;SDS011;50121;51.218;7.664;2023-02-10T07:11:17;70.95;;;26.65;;
63943;SDS011;50121;51.218;7.664;2023-02-10T07:13:45;59.95;;;24.13;;
63943;SDS011;50121;51.218;7.664;2023-02-10T07:16:13;61.80;;;24.60;;
63943;SDS011;50121;51.218;7.664;2023-02-10T07:18:43;64.90;;;26.45;;
63943;SDS011;50121;51.218;7.664;2023-02-10T07:21:10;71.75;;;27.75;;
63943;SDS011;50121;51.218;7.664;2023-02-10T07:23:38;62.13;;;25.73;;
63943;SDS011;50121;51.218;7.664;2023-02-10T07:26:05;65.28;;;25.65;;
63943;SDS011;50121;51.218;7.664;2023-02-10T07:28:34;68.28;;;24.13;;
63943;SDS011;50121;51.218;7.664;2023-02-10T07:31:02;67.45;;;26.33;;
63943;SDS011;50121;51.218;7.664;2023-02-10T07:33:30;62.65;;;24.60;;
63943;SDS011;50121;51.218;7.664;2023-02-10T07:36:00;63.47;;;25.92;;
63943;SDS011;50121;51.218;7.664;2023-02-10T07:38:29;65.03;;;25.10;;
63943;SDS011;50121;51.218;7.664;2023-02-10T07:40:57;59.25;;;24.10;;
63943;SDS011;50121;51.218;7.664;2023-02-10T07:43:25;57.28;;;23.40;;
63943;SDS011;50121;51.218;7.664;2023-02-10T07:46:00;69.38;;;24.48;;
63943;SDS011;50121;51.218;7.664;2023-02-10T07:48:28;59.17;;;24.17;;
63943;SDS011;50121;51.218;7.664;2023-02-10T07:50:56;66.93;;;25.17;;
63943;SDS011;50121;51.218;7.664;2023-02-10T07:53:23;58.33;;;24.50;;
63943;SDS011;50121;51.218;7.664;2023-02-10T07:55:51;58.03;;;23.17;;
63943;SDS011;50121;51.218;7.664;2023-02-10T07:58:18;68.38;;;27.05;;
63943;SDS011;50121;51.218;7.664;2023-02-10T08:00:46;56.95;;;24.35;;
63943;SDS011;50121;51.218;7.664;2023-02-10T08:03:14;61.05;;;24.20;;
63943;SDS011;50121;51.218;7.664;2023-02-10T08:05:41;57.30;;;21.85;;
63943;SDS011;50121;51.218;7.664;2023-02-10T08:08:09;56.78;;;22.85;;
63943;SDS011;50121;51.218;7.664;2023-02-10T08:10:39;66.38;;;23.88;;
63943;SDS011;50121;51.218;7.664;2023-02-10T08:13:07;52.58;;;20.58;;
63943;SDS011;50121;51.218;7.664;2023-02-10T08:15:35;67.32;;;25.63;;
63943;SDS011;50121;51.218;7.664;2023-02-10T08:18:02;58.17;;;22.48;;
63943;SDS011;50121;51.218;7.664;2023-02-10T08:20:30;53.05;;;21.13;;
63943;SDS011;50121;51.218;7.664;2023-02-10T08:22:58;60.88;;;23.50;;
63943;SDS011;50121;51.218;7.664;2023-02-10T08:25:26;52.22;;;20.38;;
63943;SDS011;50121;51.218;7.664;2023-02-10T08:27:53;62.83;;;24.08;;
63943;SDS011;50121;51.218;7.664;2023-02-10T08:30:21;52.95;;;19.95;;
63943;SDS011;50121;51.218;7.664;2023-02-10T08:32:49;61.40;;;24.30;;
63943;SDS011;50121;51.218;7.664;2023-02-10T08:35:16;59.00;;;23.83;;
63943;SDS011;50121;51.218;7.664;2023-02-10T08:37:44;47.03;;;19.92;;
63943;SDS011;50121;51.218;7.664;2023-02-10T08:40:12;55.13;;;22.63;;
63943;SDS011;50121;51.218;7.664;2023-02-10T08:42:39;59.13;;;24.90;;
63943;SDS011;50121;51.218;7.664;2023-02-10T08:45:08;63.92;;;25.50;;
63943;SDS011;50121;51.218;7.664;2023-02-10T08:47:35;59.53;;;23.10;;
63943;SDS011;50121;51.218;7.664;2023-02-10T08:50:03;60.58;;;24.58;;
63943;SDS011;50121;51.218;7.664;2023-02-10T08:52:31;73.25;;;27.58;;
63943;SDS011;50121;51.218;7.664;2023-02-10T08:54:58;58.15;;;22.88;;
63943;SDS011;50121;51.218;7.664;2023-02-10T08:57:28;64.82;;;26.02;;
63943;SDS011;50121;51.218;7.664;2023-02-10T08:59:55;55.22;;;22.45;;
63943;SDS011;50121;51.218;7.664;2023-02-10T09:02:23;48.53;;;20.45;;
63943;SDS011;50121;51.218;7.664;2023-02-10T09:04:51;53.10;;;21.73;;
63943;SDS011;50121;51.218;7.664;2023-02-10T09:07:33;48.90;;;20.80;;
63943;SDS011;50121;51.218;7.664;2023-02-10T09:10:00;51.67;;;20.83;;
63943;SDS011;50121;51.218;7.664;2023-02-10T09:12:28;42.25;;;18.33;;
63943;SDS011;50121;51.218;7.664;2023-02-10T09:14:55;43.40;;;18.75;;
63943;SDS011;50121;51.218;7.664;2023-02-10T09:17:23;44.72;;;20.05;;
63943;SDS011;50121;51.218;7.664;2023-02-10T09:19:50;47.63;;;19.75;;
63943;SDS011;50121;51.218;7.664;2023-02-10T09:22:18;41.17;;;18.13;;
63943;SDS011;50121;51.218;7.664;2023-02-10T09:24:46;38.08;;;17.83;;
63943;SDS011;50121;51.218;7.664;2023-02-10T09:27:15;42.13;;;19.52;;
63943;SDS011;50121;51.218;7.664;2023-02-10T09:29:42;35.78;;;18.65;;
63943;SDS011;50121;51.218;7.664;2023-02-10T09:32:10;36.80;;;17.63;;
63943;SDS011;50121;51.218;7.664;2023-02-10T09:34:38;36.78;;;17.50;;
63943;SDS011;50121;51.218;7.664;2023-02-10T09:37:06;43.10;;;18.92;;
63943;SDS011;50121;51.218;7.664;2023-02-10T09:39:34;40.58;;;18.50;;
63943;SDS011;50121;51.218;7.664;2023-02-10T09:44:33;43.13;;;19.63;;
63943;SDS011;50121;51.218;7.664;2023-02-10T09:47:15;47.60;;;20.25;;
63943;SDS011;50121;51.218;7.664;2023-02-10T09:55:08;58.25;;;23.98;;
63943;SDS011;50121;51.218;7.664;2023-02-10T09:57:41;53.60;;;21.63;;
63943;SDS011;50121;51.218;7.664;2023-02-10T10:00:54;54.55;;;21.58;;
63943;SDS011;50121;51.218;7.664;2023-02-10T10:03:01;53.80;;;23.40;;
63943;SDS011;50121;51.218;7.664;2023-02-10T10:08:01;56.58;;;22.92;;
63943;SDS011;50121;51.218;7.664;2023-02-10T10:10:32;50.83;;;20.88;;
63943;SDS011;50121;51.218;7.664;2023-02-10T10:13:01;57.45;;;23.40;;
63943;SDS011;50121;51.218;7.664;2023-02-10T10:15:34;52.90;;;22.30;;
63943;SDS011;50121;51.218;7.664;2023-02-10T10:18:10;57.80;;;23.48;;
63943;SDS011;50121;51.218;7.664;2023-02-10T10:31:14;50.92;;;20.67;;
63943;SDS011;50121;51.218;7.664;2023-02-10T10:33:54;52.42;;;24.40;;
63943;SDS011;50121;51.218;7.664;2023-02-10T10:36:34;50.20;;;20.92;;
63943;SDS011;50121;51.218;7.664;2023-02-10T10:39:11;50.42;;;21.35;;
63943;SDS011;50121;51.218;7.664;2023-02-10T10:41:40;47.03;;;21.35;;
63943;SDS011;50121;51.218;7.664;2023-02-10T10:44:10;40.80;;;19.10;;
63943;SDS011;50121;51.218;7.664;2023-02-10T10:46:46;44.88;;;19.88;;
63943;SDS011;50121;51.218;7.664;2023-02-10T10:49:15;45.80;;;19.25;;
63943;SDS011;50121;51.218;7.664;2023-02-10T10:51:43;43.05;;;19.58;;
63943;SDS011;50121;51.218;7.664;2023-02-10T10:54:15;37.47;;;17.70;;
63943;SDS011;50121;51.218;7.664;2023-02-10T10:56:48;41.05;;;19.40;;
63943;SDS011;50121;51.218;7.664;2023-02-10T11:01:50;42.67;;;20.25;;
63943;SDS011;50121;51.218;7.664;2023-02-10T11:04:20;45.83;;;21.38;;
63943;SDS011;50121;51.218;7.664;2023-02-10T11:06:50;39.88;;;18.52;;
63943;SDS011;50121;51.218;7.664;2023-02-10T11:14:37;42.40;;;19.60;;
63943;SDS011;50121;51.218;7.664;2023-02-10T11:17:17;42.42;;;19.38;;
63943;SDS011;50121;51.218;7.664;2023-02-10T11:19:52;45.58;;;20.73;;
63943;SDS011;50121;51.218;7.664;2023-02-10T11:22:20;50.35;;;21.15;;
63943;SDS011;50121;51.218;7.664;2023-02-10T11:24:49;36.15;;;16.20;;
63943;SDS011;50121;51.218;7.664;2023-02-10T11:27:18;37.05;;;18.25;;
63943;SDS011;50121;51.218;7.664;2023-02-10T11:29:49;38.55;;;18.15;;
63943;SDS011;50121;51.218;7.664;2023-02-10T11:32:18;40.50;;;19.08;;
63943;SDS011;50121;51.218;7.664;2023-02-10T11:34:47;31.60;;;17.23;;
63943;SDS011;50121;51.218;7.664;2023-02-10T11:39:49;33.85;;;16.20;;
63943;SDS011;50121;51.218;7.664;2023-02-10T11:44:58;32.78;;;16.15;;
63943;SDS011;50121;51.218;7.664;2023-02-10T11:47:27;32.78;;;15.02;;
63943;SDS011;50121;51.218;7.664;2023-02-10T11:49:55;30.80;;;16.38;;
63943;SDS011;50121;51.218;7.664;2023-02-10T11:52:24;34.85;;;17.13;;
63943;SDS011;50121;51.218;7.664;2023-02-10T11:54:54;32.83;;;13.90;;
63943;SDS011;50121;51.218;7.664;2023-02-10T11:57:44;31.73;;;15.73;;
63943;SDS011;50121;51.218;7.664;2023-02-10T12:00:36;31.48;;;15.43;;
63943;SDS011;50121;51.218;7.664;2023-02-10T12:08:10;28.55;;;13.38;;
63943;SDS011;50121;51.218;7.664;2023-02-10T12:10:51;28.85;;;15.63;;
63943;SDS011;50121;51.218;7.664;2023-02-10T12:13:31;27.48;;;15.25;;
63943;SDS011;50121;51.218;7.664;2023-02-10T12:21:10;25.92;;;14.13;;
63943;SDS011;50121;51.218;7.664;2023-02-10T12:26:22;28.20;;;15.00;;
63943;SDS011;50121;51.218;7.664;2023-02-10T12:37:13;29.13;;;15.90;;
63943;SDS011;50121;51.218;7.664;2023-02-10T12:40:04;33.20;;;16.35;;
63943;SDS011;50121;51.218;7.664;2023-02-10T12:52:54;31.90;;;17.10;;
63943;SDS011;50121;51.218;7.664;2023-02-10T12:55:24;33.50;;;17.87;;
63943;SDS011;50121;51.218;7.664;2023-02-10T12:57:55;25.92;;;14.10;;
63943;SDS011;50121;51.218;7.664;2023-02-10T13:00:27;34.65;;;18.48;;
63943;SDS011;50121;51.218;7.664;2023-02-10T13:02:58;28.90;;;16.80;;
63943;SDS011;50121;51.218;7.664;2023-02-10T13:05:32;28.88;;;16.17;;
63943;SDS011;50121;51.218;7.664;2023-02-10T13:08:02;35.20;;;17.50;;
63943;SDS011;50121;51.218;7.664;2023-02-10T13:10:36;24.38;;;15.77;;
63943;SDS011;50121;51.218;7.664;2023-02-10T13:15:46;26.55;;;15.95;;
63943;SDS011;50121;51.218;7.664;2023-02-10T13:18:17;38.65;;;28.13;;
63943;SDS011;50121;51.218;7.664;2023-02-10T13:20:49;32.42;;;22.67;;
63943;SDS011;50121;51.218;7.664;2023-02-10T13:36:29;23.70;;;15.00;;
63943;SDS011;50121;51.218;7.664;2023-02-10T13:38:58;39.70;;;25.10;;
63943;SDS011;50121;51.218;7.664;2023-02-10T13:41:32;24.58;;;17.02;;
63943;SDS011;50121;51.218;7.664;2023-02-10T13:49:37;25.38;;;17.08;;
63943;SDS011;50121;51.218;7.664;2023-02-10T13:52:17;26.55;;;17.80;;
63943;SDS011;50121;51.218;7.664;2023-02-10T13:57:33;27.75;;;17.45;;
63943;SDS011;50121;51.218;7.664;2023-02-10T14:00:20;27.50;;;18.10;;
63943;SDS011;50121;51.218;7.664;2023-02-10T14:02:58;35.83;;;22.35;;
63943;SDS011;50121;51.218;7.664;2023-02-10T14:05:33;42.95;;;22.95;;
63943;SDS011;50121;51.218;7.664;2023-02-10T14:08:11;30.27;;;17.88;;
63943;SDS011;50121;51.218;7.664;2023-02-10T14:10:39;36.60;;;18.60;;
63943;SDS011;50121;51.218;7.664;2023-02-10T14:13:21;32.65;;;18.98;;
63943;SDS011;50121;51.218;7.664;2023-02-10T14:16:03;49.30;;;26.20;;
63943;SDS011;50121;51.218;7.664;2023-02-10T14:18:35;27.38;;;16.02;;
63943;SDS011;50121;51.218;7.664;2023-02-10T14:21:09;32.53;;;18.48;;
63943;SDS011;50121;51.218;7.664;2023-02-10T14:26:15;32.85;;;18.58;;
63943;SDS011;50121;51.218;7.664;2023-02-10T14:28:49;33.15;;;18.58;;
63943;SDS011;50121;51.218;7.664;2023-02-10T14:31:23;39.28;;;18.98;;
63943;SDS011;50121;51.218;7.664;2023-02-10T14:33:53;36.58;;;18.55;;
63943;SDS011;50121;51.218;7.664;2023-02-10T14:36:21;35.10;;;19.08;;
63943;SDS011;50121;51.218;7.664;2023-02-10T14:38:50;41.83;;;19.65;;
63943;SDS011;50121;51.218;7.664;2023-02-10T14:41:18;39.42;;;19.30;;
63943;SDS011;50121;51.218;7.664;2023-02-10T14:43:47;33.05;;;18.40;;
63943;SDS011;50121;51.218;7.664;2023-02-10T14:46:20;37.65;;;18.92;;
63943;SDS011;50121;51.218;7.664;2023-02-10T14:48:49;35.70;;;19.33;;
63943;SDS011;50121;51.218;7.664;2023-02-10T14:51:21;41.40;;;21.80;;
63943;SDS011;50121;51.218;7.664;2023-02-10T14:53:50;36.03;;;19.20;;
63943;SDS011;50121;51.218;7.664;2023-02-10T14:56:19;34.10;;;18.20;;
63943;SDS011;50121;51.218;7.664;2023-02-10T14:58:47;33.63;;;18.90;;
63943;SDS011;50121;51.218;7.664;2023-02-10T15:01:26;32.17;;;18.27;;
63943;SDS011;50121;51.218;7.664;2023-02-10T15:03:56;33.72;;;19.33;;
63943;SDS011;50121;51.218;7.664;2023-02-10T15:06:25;29.13;;;16.48;;
63943;SDS011;50121;51.218;7.664;2023-02-10T15:11:45;43.38;;;21.13;;
63943;SDS011;50121;51.218;7.664;2023-02-10T15:14:33;34.40;;;20.10;;
63943;SDS011;50121;51.218;7.664;2023-02-10T15:17:05;36.60;;;20.00;;
63943;SDS011;50121;51.218;7.664;2023-02-10T15:19:33;34.35;;;18.95;;
63943;SDS011;50121;51.218;7.664;2023-02-10T15:22:01;36.88;;;19.60;;
63943;SDS011;50121;51.218;7.664;2023-02-10T15:24:31;38.50;;;19.65;;
63943;SDS011;50121;51.218;7.664;2023-02-10T15:27:16;36.75;;;19.50;;
63943;SDS011;50121;51.218;7.664;2023-02-10T15:29:44;36.83;;;18.98;;
63943;SDS011;50121;51.218;7.664;2023-02-10T15:32:18;34.60;;;19.67;;
63943;SDS011;50121;51.218;7.664;2023-02-10T15:34:46;37.65;;;20.00;;
63943;SDS011;50121;51.218;7.664;2023-02-10T15:37:17;39.92;;;20.17;;
63943;SDS011;50121;51.218;7.664;2023-02-10T15:39:56;35.80;;;20.30;;
63943;SDS011;50121;51.218;7.664;2023-02-10T15:42:29;39.72;;;19.27;;
63943;SDS011;50121;51.218;7.664;2023-02-10T15:47:47;40.03;;;20.75;;
63943;SDS011;50121;51.218;7.664;2023-02-10T15:50:18;38.60;;;18.13;;
63943;SDS011;50121;51.218;7.664;2023-02-10T15:52:46;35.72;;;19.10;;
63943;SDS011;50121;51.218;7.664;2023-02-10T15:57:42;37.47;;;19.08;;
63943;SDS011;50121;51.218;7.664;2023-02-10T16:00:12;34.78;;;18.95;;
63943;SDS011;50121;51.218;7.664;2023-02-10T16:02:43;34.83;;;19.23;;
63943;SDS011;50121;51.218;7.664;2023-02-10T16:05:10;35.20;;;18.70;;
63943;SDS011;50121;51.218;7.664;2023-02-10T16:07:38;35.08;;;19.13;;
63943;SDS011;50121;51.218;7.664;2023-02-10T16:10:10;34.17;;;18.73;;
63943;SDS011;50121;51.218;7.664;2023-02-10T16:12:41;33.10;;;17.67;;
63943;SDS011;50121;51.218;7.664;2023-02-10T16:15:13;33.38;;;18.13;;
63943;SDS011;50121;51.218;7.664;2023-02-10T16:17:41;35.88;;;18.02;;
63943;SDS011;50121;51.218;7.664;2023-02-10T16:20:14;33.33;;;18.02;;
63943;SDS011;50121;51.218;7.664;2023-02-10T16:22:42;33.60;;;18.20;;
63943;SDS011;50121;51.218;7.664;2023-02-10T16:25:09;36.33;;;18.70;;
63943;SDS011;50121;51.218;7.664;2023-02-10T16:27:37;28.65;;;15.77;;
63943;SDS011;50121;51.218;7.664;2023-02-10T16:30:05;33.05;;;18.63;;
63943;SDS011;50121;51.218;7.664;2023-02-10T16:32:32;33.90;;;18.02;;
63943;SDS011;50121;51.218;7.664;2023-02-10T16:35:00;33.50;;;17.85;;
63943;SDS011;50121;51.218;7.664;2023-02-10T16:37:28;33.72;;;18.48;;
63943;SDS011;50121;51.218;7.664;2023-02-10T16:39:55;33.88;;;18.30;;
63943;SDS011;50121;51.218;7.664;2023-02-10T16:42:23;38.03;;;18.70;;
63943;SDS011;50121;51.218;7.664;2023-02-10T16:44:51;33.65;;;17.40;;
63943;SDS011;50121;51.218;7.664;2023-02-10T16:47:20;36.53;;;19.58;;
63943;SDS011;50121;51.218;7.664;2023-02-10T16:49:48;31.23;;;17.92;;